Time;durP1;ratioP1;P1;durP2;ratioP2;P2;SDS_P1;SDS_P2;PMS_P1;PMS_P2;Temp;Humidity;BMP_temperature;BMP_pressure;BME280_temperature;BME280_humidity;BME280_pressure;Samples;Min_cycle;Max_cycle;Signal;HPM_P1;HPM_P2
2021/06/28 00:00:06;;;;;;;;;;;21.20;89.20;;;;;;4360173;32;43285;-77
2021/06/28 00:02:33;;;;;;;;;;;21.20;89.20;;;;;;4360422;33;20016;-77
2021/06/28 00:05:03;;;;;;;;;;;21.20;89.30;;;;;;4359977;33;45171;-77
2021/06/28 00:07:30;;;;;;;;;;;21.10;89.20;;;;;;4347892;33;20024;-77
2021/06/28 00:09:57;;;;;;;;;;;21.10;89.20;;;;;;4359382;32;20004;-77
2021/06/28 00:12:27;;;;;;;;;;;21.20;89.40;;;;;;4359592;33;20016;-77
2021/06/28 00:14:54;;;;;;;;;;;21.10;89.30;;;;;;4359972;32;43533;-77
2021/06/28 00:17:22;;;;;;;;;;;21.10;89.30;;;;;;4358903;32;44160;-77
2021/06/28 00:19:51;;;;;;;;;;;21.10;89.40;;;;;;4359300;33;30849;-77
2021/06/28 00:22:20;;;;;;;;;;;21.10;89.40;;;;;;4358349;32;44724;-77
2021/06/28 00:24:47;;;;;;;;;;;21.10;89.40;;;;;;4348698;32;45327;-79
2021/06/28 00:27:14;;;;;;;;;;;21.10;89.50;;;;;;4361485;32;44981;-76
2021/06/28 00:29:44;;;;;;;;;;;21.10;89.50;;;;;;4363179;32;30995;-77
2021/06/28 00:32:11;;;;;;;;;;;21.10;89.50;;;;;;4361539;32;43121;-77
2021/06/28 00:34:40;;;;;;;;;;;21.10;89.50;;;;;;4362470;32;34065;-77
2021/06/28 00:37:08;;;;;;;;;;;21.10;89.60;;;;;;4362832;32;20453;-77
2021/06/28 00:39:35;;;;;;;;;;;21.00;89.60;;;;;;4361668;32;43056;-77
2021/06/28 00:42:04;;;;;;;;;;;21.10;89.70;;;;;;4361406;32;43527;-76
2021/06/28 00:44:34;;;;;;;;;;;21.00;89.70;;;;;;4362415;32;43432;-77
2021/06/28 00:47:01;;;;;;;;;;;21.00;89.70;;;;;;4362889;32;44174;-79
2021/06/28 00:49:28;;;;;;;;;;;20.90;89.80;;;;;;4361311;32;30478;-77
2021/06/28 00:52:00;;;;;;;;;;;20.90;89.90;;;;;;4362746;32;20454;-77
2021/06/28 00:54:30;;;;;;;;;;;20.90;90.00;;;;;;4362980;32;29722;-77
2021/06/28 00:56:57;;;;;;;;;;;20.80;90.00;;;;;;4362280;32;43647;-78
2021/06/28 00:59:24;;;;;;;;;;;20.80;90.10;;;;;;4362319;32;44657;-77
2021/06/28 01:01:51;;;;;;;;;;;20.80;90.20;;;;;;4362461;32;22184;-77
2021/06/28 01:04:19;;;;;;;;;;;20.80;90.20;;;;;;4361364;32;43630;-77
2021/06/28 01:06:46;;;;;;;;;;;20.80;90.20;;;;;;4350201;32;20004;-77
2021/06/28 01:09:15;;;;;;;;;;;20.80;90.20;;;;;;4360691;32;44173;-77
2021/06/28 01:11:42;;;;;;;;;;;20.80;90.10;;;;;;4360511;32;44970;-77
2021/06/28 01:14:12;;;;;;;;;;;20.90;90.10;;;;;;4363378;32;20015;-77
2021/06/28 01:16:40;;;;;;;;;;;20.80;90.10;;;;;;4362585;32;20303;-77
2021/06/28 01:19:07;;;;;;;;;;;20.90;90.10;;;;;;4361954;32;43688;-77
2021/06/28 01:21:36;;;;;;;;;;;20.90;90.00;;;;;;4362713;32;23640;-77
2021/06/28 01:24:03;;;;;;;;;;;20.90;90.00;;;;;;4361020;32;26647;-77
2021/06/28 01:26:33;;;;;;;;;;;20.90;90.00;;;;;;4361824;32;20019;-77
2021/06/28 01:29:00;;;;;;;;;;;20.90;90.00;;;;;;4361551;32;44408;-77
2021/06/28 01:31:27;;;;;;;;;;;20.90;90.00;;;;;;4362231;32;20068;-77
2021/06/28 01:33:54;;;;;;;;;;;20.90;90.00;;;;;;4362770;32;20005;-77
2021/06/28 01:36:21;;;;;;;;;;;20.90;90.00;;;;;;4362030;32;20440;-76
2021/06/28 01:38:51;;;;;;;;;;;20.90;90.00;;;;;;4363033;32;20019;-77
2021/06/28 01:41:18;;;;;;;;;;;20.90;90.10;;;;;;4360642;32;43295;-76
2021/06/28 01:43:48;;;;;;;;;;;20.90;90.10;;;;;;4362525;32;20009;-76
2021/06/28 01:46:15;;;;;;;;;;;20.90;90.10;;;;;;4361277;32;42410;-77
2021/06/28 01:48:45;;;;;;;;;;;20.90;90.40;;;;;;4362377;32;23919;-77
2021/06/28 01:51:12;;;;;;;;;;;20.90;90.10;;;;;;4361309;32;44463;-77
2021/06/28 01:53:41;;;;;;;;;;;20.80;90.10;;;;;;4362418;32;20418;-77
2021/06/28 01:56:09;;;;;;;;;;;20.90;90.10;;;;;;4349074;32;20047;-77
2021/06/28 01:58:36;;;;;;;;;;;20.80;90.10;;;;;;4361520;32;26683;-77
2021/06/28 02:01:06;;;;;;;;;;;20.80;90.10;;;;;;4362668;32;20024;-77
2021/06/28 02:03:40;;;;;;;;;;;20.90;90.10;;;;;;4348822;32;20005;-77
2021/06/28 02:06:07;;;;;;;;;;;20.90;90.10;;;;;;4361568;32;20008;-77
2021/06/28 02:08:35;;;;;;;;;;;20.80;90.10;;;;;;4361737;32;44250;-77
2021/06/28 02:11:04;;;;;;;;;;;20.80;90.10;;;;;;4347481;32;44669;-78
2021/06/28 02:13:33;;;;;;;;;;;20.80;90.10;;;;;;4361297;32;43193;-78
2021/06/28 02:16:01;;;;;;;;;;;20.80;90.10;;;;;;4347622;32;44605;-77
2021/06/28 02:18:28;;;;;;;;;;;20.80;90.10;;;;;;4361956;32;20488;-78
2021/06/28 02:20:56;;;;;;;;;;;20.80;90.10;;;;;;4360669;32;43623;-78
2021/06/28 02:23:23;;;;;;;;;;;20.80;90.10;;;;;;4361520;32;31346;-78
2021/06/28 02:25:54;;;;;;;;;;;20.80;90.10;;;;;;4361283;32;31833;-78
2021/06/28 02:28:24;;;;;;;;;;;20.70;90.10;;;;;;4360680;32;28922;-78
2021/06/28 02:30:52;;;;;;;;;;;20.80;90.10;;;;;;4359995;32;43660;-78
2021/06/28 02:33:21;;;;;;;;;;;20.80;90.10;;;;;;4360956;32;43557;-78
2021/06/28 02:35:49;;;;;;;;;;;20.70;90.10;;;;;;4361861;32;20103;-78
2021/06/28 02:38:16;;;;;;;;;;;20.80;90.10;;;;;;4359541;32;45039;-78
2021/06/28 02:40:49;;;;;;;;;;;20.80;90.10;;;;;;4347248;32;44697;-78
2021/06/28 02:43:16;;;;;;;;;;;20.70;90.00;;;;;;4359611;32;43365;-78
2021/06/28 02:45:44;;;;;;;;;;;20.80;90.10;;;;;;4360031;32;43367;-79
2021/06/28 02:48:11;;;;;;;;;;;20.70;90.00;;;;;;4360566;32;43116;-78
2021/06/28 02:50:38;;;;;;;;;;;20.70;90.00;;;;;;4360241;32;44798;-78
2021/06/28 02:53:06;;;;;;;;;;;20.70;90.00;;;;;;4359892;32;41654;-78
2021/06/28 02:55:33;;;;;;;;;;;20.70;90.00;;;;;;4359454;32;42589;-78
2021/06/28 02:58:04;;;;;;;;;;;20.70;90.10;;;;;;4361874;32;20439;-79
2021/06/28 03:00:34;;;;;;;;;;;20.70;90.10;;;;;;4360499;32;32025;-79
2021/06/28 03:03:04;;;;;;;;;;;20.70;90.10;;;;;;4359294;32;44469;-79
2021/06/28 03:05:31;;;;;;;;;;;20.60;90.00;;;;;;4360536;32;44514;-78
2021/06/28 03:07:59;;;;;;;;;;;20.70;90.00;;;;;;4360391;32;43353;-78
2021/06/28 03:10:26;;;;;;;;;;;20.60;90.00;;;;;;4361004;32;23270;-79
2021/06/28 03:12:53;;;;;;;;;;;20.60;90.00;;;;;;4359170;32;34269;-80
2021/06/28 03:15:23;;;;;;;;;;;20.60;90.00;;;;;;4360182;32;25112;-79
2021/06/28 03:17:50;;;;;;;;;;;20.60;90.00;;;;;;4360634;32;44487;-79
2021/06/28 03:20:18;;;;;;;;;;;20.60;90.00;;;;;;4360311;32;43483;-79
2021/06/28 03:22:45;;;;;;;;;;;20.60;90.00;;;;;;4359706;32;20020;-79
2021/06/28 03:25:14;;;;;;;;;;;20.60;90.10;;;;;;4359238;32;43348;-79
2021/06/28 03:27:41;;;;;;;;;;;20.60;90.10;;;;;;4359169;32;44640;-80
2021/06/28 03:30:10;;;;;;;;;;;20.60;90.10;;;;;;4360066;32;20093;-79
2021/06/28 03:32:40;;;;;;;;;;;20.60;90.10;;;;;;4359320;32;27174;-79
2021/06/28 03:35:08;;;;;;;;;;;20.60;90.10;;;;;;4360750;32;23905;-79
2021/06/28 03:37:39;;;;;;;;;;;20.60;90.10;;;;;;4360015;32;20004;-79
2021/06/28 03:40:07;;;;;;;;;;;20.60;90.10;;;;;;4359277;32;43129;-80
2021/06/28 03:42:37;;;;;;;;;;;20.60;90.10;;;;;;4360829;33;22286;-79
2021/06/28 03:45:08;;;;;;;;;;;20.60;90.10;;;;;;4359886;33;44496;-79
2021/06/28 03:47:35;;;;;;;;;;;20.60;90.10;;;;;;4359060;32;42230;-79
2021/06/28 03:50:03;;;;;;;;;;;20.50;90.10;;;;;;4360042;33;32834;-78
2021/06/28 03:52:33;;;;;;;;;;;20.50;90.10;;;;;;4359219;33;23091;-79
2021/06/28 03:55:00;;;;;;;;;;;20.50;90.10;;;;;;4359426;33;32855;-79
2021/06/28 03:57:27;;;;;;;;;;;20.60;90.10;;;;;;4359058;32;44839;-79
2021/06/28 03:59:57;;;;;;;;;;;20.50;90.10;;;;;;4362745;32;20016;-79
2021/06/28 04:02:27;;;;;;;;;;;20.50;90.10;;;;;;4362758;32;20013;-79
2021/06/28 04:04:57;;;;;;;;;;;20.50;90.10;;;;;;4349810;32;42612;-78
2021/06/28 04:07:24;;;;;;;;;;;20.50;90.10;;;;;;4361568;32;43790;-79
2021/06/28 04:09:53;;;;;;;;;;;20.50;90.20;;;;;;4362541;32;42592;-79
2021/06/28 04:12:23;;;;;;;;;;;20.50;90.20;;;;;;4363579;32;24997;-79
2021/06/28 04:14:53;;;;;;;;;;;20.50;90.20;;;;;;4349333;32;44750;-79
2021/06/28 04:17:20;;;;;;;;;;;20.50;90.20;;;;;;4361636;32;42973;-79
2021/06/28 04:19:47;;;;;;;;;;;20.50;90.20;;;;;;4362862;32;43137;-80
2021/06/28 04:22:14;;;;;;;;;;;20.50;90.20;;;;;;4362675;32;44628;-80
2021/06/28 04:24:43;;;;;;;;;;;20.50;90.30;;;;;;4363638;32;21464;-79
2021/06/28 04:27:13;;;;;;;;;;;20.50;90.30;;;;;;4362505;32;20005;-78
2021/06/28 04:29:41;;;;;;;;;;;20.50;90.30;;;;;;4361815;32;44395;-78
2021/06/28 04:32:10;;;;;;;;;;;20.50;90.30;;;;;;4363429;32;20005;-79
2021/06/28 04:34:44;;;;;;;;;;;20.50;90.30;;;;;;4361432;32;40830;-79
2021/06/28 04:37:11;;;;;;;;;;;20.50;90.30;;;;;;4362429;32;43634;-78
2021/06/28 04:39:41;;;;;;;;;;;20.40;90.30;;;;;;4361327;32;43484;-78
2021/06/28 04:42:08;;;;;;;;;;;20.40;90.30;;;;;;4363714;32;20009;-79
2021/06/28 04:44:35;;;;;;;;;;;20.40;90.40;;;;;;4361440;32;42589;-78
2021/06/28 04:47:03;;;;;;;;;;;20.50;90.50;;;;;;4361038;32;44012;-79
2021/06/28 04:49:30;;;;;;;;;;;20.40;90.40;;;;;;4362109;32;43213;-79
2021/06/28 04:52:00;;;;;;;;;;;20.40;90.50;;;;;;4363088;32;21193;-77
2021/06/28 04:54:29;;;;;;;;;;;20.40;90.50;;;;;;4361914;32;30097;-77
2021/06/28 04:56:57;;;;;;;;;;;20.40;90.50;;;;;;4361087;32;43964;-78
2021/06/28 04:59:26;;;;;;;;;;;20.40;90.60;;;;;;4363667;32;20009;-78
2021/06/28 05:01:53;;;;;;;;;;;20.40;90.60;;;;;;4363544;32;20049;-77
2021/06/28 05:04:23;;;;;;;;;;;20.40;90.70;;;;;;4361619;32;43608;-78
2021/06/28 05:06:50;;;;;;;;;;;20.40;90.70;;;;;;4362165;32;44545;-77
2021/06/28 05:09:18;;;;;;;;;;;20.40;90.80;;;;;;4361812;32;20023;-77
2021/06/28 05:11:46;;;;;;;;;;;20.40;90.80;;;;;;4361702;32;43286;-77
2021/06/28 05:14:16;;;;;;;;;;;20.40;90.90;;;;;;4361145;32;44449;-77
2021/06/28 05:16:43;;;;;;;;;;;20.40;90.80;;;;;;4361645;32;43394;-77
2021/06/28 05:19:13;;;;;;;;;;;20.30;90.90;;;;;;4362773;32;20026;-77
2021/06/28 05:21:40;;;;;;;;;;;20.30;91.00;;;;;;4349074;32;21121;-77
2021/06/28 05:24:07;;;;;;;;;;;20.40;91.10;;;;;;4361592;32;44266;-78
2021/06/28 05:26:35;;;;;;;;;;;20.40;91.20;;;;;;4360891;32;43634;-78
2021/06/28 05:29:04;;;;;;;;;;;20.30;91.20;;;;;;4360822;32;43611;-78
2021/06/28 05:31:31;;;;;;;;;;;20.40;91.30;;;;;;4363210;32;20000;-78
2021/06/28 05:33:58;;;;;;;;;;;20.30;91.30;;;;;;4361988;32;43694;-77
2021/06/28 05:36:26;;;;;;;;;;;20.40;91.30;;;;;;4360421;32;44654;-77
2021/06/28 05:38:53;;;;;;;;;;;20.30;91.30;;;;;;4361338;32;43511;-78
2021/06/28 05:41:22;;;;;;;;;;;20.40;91.40;;;;;;4362462;32;20098;-78
2021/06/28 05:43:50;;;;;;;;;;;20.40;91.40;;;;;;4361789;32;20025;-77
2021/06/28 05:46:17;;;;;;;;;;;20.40;91.50;;;;;;4361375;32;43658;-77
2021/06/28 05:48:46;;;;;;;;;;;20.40;91.60;;;;;;4361168;32;44701;-77
2021/06/28 05:51:14;;;;;;;;;;;20.30;91.50;;;;;;4360469;32;43865;-77
2021/06/28 05:53:43;;;;;;;;;;;20.40;91.60;;;;;;4349095;32;20447;-77
2021/06/28 05:56:15;;;;;;;;;;;20.40;91.70;;;;;;4360420;32;43603;-77
2021/06/28 05:58:42;;;;;;;;;;;20.40;91.80;;;;;;4360512;32;44667;-77
2021/06/28 06:01:10;;;;;;;;;;;20.40;91.80;;;;;;4361498;32;44470;-77
2021/06/28 06:03:37;;;;;;;;;;;20.40;91.80;;;;;;4359788;32;44499;-77
2021/06/28 06:06:05;;;;;;;;;;;20.40;91.80;;;;;;4360940;32;44761;-77
2021/06/28 06:08:34;;;;;;;;;;;20.40;91.80;;;;;;4359710;32;43690;-78
2021/06/28 06:11:02;;;;;;;;;;;20.40;91.80;;;;;;4362648;32;20013;-77
2021/06/28 06:13:29;;;;;;;;;;;20.40;91.90;;;;;;4360078;32;42411;-77
2021/06/28 06:15:59;;;;;;;;;;;20.40;91.90;;;;;;4361053;32;43638;-77
2021/06/28 06:18:26;;;;;;;;;;;20.40;92.00;;;;;;4360772;32;43203;-77
2021/06/28 06:20:56;;;;;;;;;;;20.40;92.00;;;;;;4359188;32;43796;-77
2021/06/28 06:23:23;;;;;;;;;;;20.40;92.00;;;;;;4360757;32;20979;-77
2021/06/28 06:25:50;;;;;;;;;;;20.40;92.00;;;;;;4361861;32;20091;-77
2021/06/28 06:28:17;;;;;;;;;;;20.50;92.10;;;;;;4360563;32;42545;-77
2021/06/28 06:30:47;;;;;;;;;;;20.40;92.10;;;;;;4362124;32;20005;-77
2021/06/28 06:33:14;;;;;;;;;;;20.50;92.10;;;;;;4360002;32;44222;-77
2021/06/28 06:35:44;;;;;;;;;;;20.50;92.10;;;;;;4360904;32;43392;-78
2021/06/28 06:38:11;;;;;;;;;;;20.40;92.00;;;;;;4361952;32;20385;-77
2021/06/28 06:40:38;;;;;;;;;;;20.50;92.00;;;;;;4360644;32;43773;-76
2021/06/28 06:43:08;;;;;;;;;;;20.40;92.00;;;;;;4360749;32;43264;-77
2021/06/28 06:45:35;;;;;;;;;;;20.50;92.00;;;;;;4360595;32;43397;-77
2021/06/28 06:48:03;;;;;;;;;;;20.40;91.90;;;;;;4359607;32;43344;-77
2021/06/28 06:50:33;;;;;;;;;;;20.40;91.90;;;;;;4347896;32;26205;-77
2021/06/28 06:53:07;;;;;;;;;;;20.50;92.00;;;;;;4360204;32;27939;-77
2021/06/28 06:55:37;;;;;;;;;;;20.50;91.90;;;;;;4361912;32;20070;-77
2021/06/28 06:58:08;;;;;;;;;;;20.50;91.90;;;;;;4360457;32;44452;-76
2021/06/28 07:00:39;;;;;;;;;;;20.50;91.80;;;;;;4359719;32;24943;-76
2021/06/28 07:03:08;;;;;;;;;;;20.50;91.80;;;;;;4360061;32;43373;-77
2021/06/28 07:05:35;;;;;;;;;;;20.50;91.70;;;;;;4360307;32;44009;-76
2021/06/28 07:08:03;;;;;;;;;;;20.50;91.70;;;;;;4358886;32;44819;-76
2021/06/28 07:10:32;;;;;;;;;;;20.50;91.70;;;;;;4361007;32;28114;-76
2021/06/28 07:13:00;;;;;;;;;;;20.50;91.60;;;;;;4361882;32;20106;-76
2021/06/28 07:15:28;;;;;;;;;;;20.50;91.60;;;;;;4360325;32;43015;-76
2021/06/28 07:18:00;;;;;;;;;;;20.50;91.60;;;;;;4361726;32;20021;-76
2021/06/28 07:20:27;;;;;;;;;;;20.50;91.60;;;;;;4360543;32;43659;-75
2021/06/28 07:22:55;;;;;;;;;;;20.60;91.60;;;;;;4358977;32;43374;-76
2021/06/28 07:25:30;;;;;;;;;;;20.50;91.60;;;;;;4359247;32;30330;-76
2021/06/28 07:28:00;;;;;;;;;;;20.50;91.60;;;;;;4359158;32;43034;-77
2021/06/28 07:30:28;;;;;;;;;;;20.50;91.60;;;;;;4359295;32;42288;-76
2021/06/28 07:32:55;;;;;;;;;;;20.60;91.60;;;;;;4359996;32;43342;-76
2021/06/28 07:35:26;;;;;;;;;;;20.60;91.60;;;;;;4358855;32;44181;-76
2021/06/28 07:38:01;;;;;;;;;;;20.60;91.50;;;;;;4360833;32;24729;-76
2021/06/28 07:40:28;;;;;;;;;;;20.60;91.50;;;;;;4359098;32;45409;-76
2021/06/28 07:43:00;;;;;;;;;;;20.60;91.50;;;;;;4360528;32;22028;-76
2021/06/28 07:45:30;;;;;;;;;;;20.60;91.50;;;;;;4361381;33;20005;-76
2021/06/28 07:48:03;;;;;;;;;;;20.60;91.50;;;;;;4359941;33;20122;-76
2021/06/28 07:50:30;;;;;;;;;;;20.60;91.50;;;;;;4358938;33;43150;-76
2021/06/28 07:52:57;;;;;;;;;;;20.60;91.50;;;;;;4359062;33;43139;-76
2021/06/28 07:55:24;;;;;;;;;;;20.60;91.50;;;;;;4359011;32;44693;-76
2021/06/28 07:57:54;;;;;;;;;;;20.60;91.50;;;;;;4359279;33;21444;-76
2021/06/28 08:00:24;;;;;;;;;;;20.60;91.60;;;;;;4359642;32;43490;-76
2021/06/28 08:02:51;;;;;;;;;;;20.60;91.50;;;;;;4359508;33;43651;-76
2021/06/28 08:05:18;;;;;;;;;;;20.60;91.50;;;;;;4360288;33;34724;-76
2021/06/28 08:07:45;;;;;;;;;;;20.70;91.60;;;;;;4358946;33;44200;-76
2021/06/28 08:10:13;;;;;;;;;;;20.60;91.50;;;;;;4359836;33;20009;-76
2021/06/28 08:12:44;;;;;;;;;;;20.70;91.50;;;;;;4359565;33;43344;-76
2021/06/28 08:15:11;;;;;;;;;;;20.70;91.60;;;;;;4359251;33;44414;-76
2021/06/28 08:17:38;;;;;;;;;;;20.70;91.60;;;;;;4359989;33;43379;-76
2021/06/28 08:20:06;;;;;;;;;;;20.70;91.90;;;;;;4360084;33;20013;-75
2021/06/28 08:22:33;;;;;;;;;;;20.70;91.50;;;;;;4358845;33;43095;-76
2021/06/28 08:25:01;;;;;;;;;;;20.70;91.60;;;;;;4359067;33;21775;-75
2021/06/28 08:27:28;;;;;;;;;;;20.70;91.50;;;;;;4359479;33;20350;-76
2021/06/28 08:29:55;;;;;;;;;;;20.70;91.50;;;;;;4360797;33;20005;-75
2021/06/28 08:32:22;;;;;;;;;;;20.70;91.50;;;;;;4360774;32;20051;-76
2021/06/28 08:34:53;;;;;;;;;;;20.70;91.50;;;;;;4346599;33;27334;-76
2021/06/28 08:37:20;;;;;;;;;;;20.70;91.50;;;;;;4358399;32;42284;-76
2021/06/28 08:39:50;;;;;;;;;;;20.70;91.40;;;;;;4358801;33;44700;-76
2021/06/28 08:42:20;;;;;;;;;;;20.70;91.40;;;;;;4359656;33;42770;-75
2021/06/28 08:44:51;;;;;;;;;;;20.70;91.40;;;;;;4361802;32;20024;-75
2021/06/28 08:47:18;;;;;;;;;;;20.70;91.40;;;;;;4362014;32;42747;-75
2021/06/28 08:49:45;;;;;;;;;;;20.70;91.40;;;;;;4361422;32;44357;-76
2021/06/28 08:52:12;;;;;;;;;;;20.70;91.40;;;;;;4362441;32;43420;-75
2021/06/28 08:54:39;;;;;;;;;;;20.80;91.50;;;;;;4361962;32;43202;-75
2021/06/28 08:57:06;;;;;;;;;;;20.80;91.50;;;;;;4362514;32;44321;-75
2021/06/28 08:59:33;;;;;;;;;;;20.80;91.50;;;;;;4360731;32;45345;-75
2021/06/28 09:02:03;;;;;;;;;;;20.70;91.40;;;;;;4361939;32;44252;-76
2021/06/28 09:04:30;;;;;;;;;;;20.70;91.40;;;;;;4360816;32;43283;-76
2021/06/28 09:07:19;;;;;;;;;;;20.80;91.50;;;;;;4360688;32;42744;-75
2021/06/28 09:09:48;;;;;;;;;;;20.70;91.40;;;;;;4361735;32;44114;-77
2021/06/28 09:12:19;;;;;;;;;;;20.70;91.40;;;;;;4361122;32;43678;-74
2021/06/28 09:14:54;;;;;;;;;;;20.70;91.60;;;;;;4362208;32;41535;-75
2021/06/28 09:17:25;;;;;;;;;;;20.70;91.60;;;;;;4348549;32;43493;-75
2021/06/28 09:20:10;;;;;;;;;;;20.70;91.60;;;;;;4362307;32;44654;-75
2021/06/28 09:22:38;;;;;;;;;;;20.70;91.60;;;;;;4361126;32;44494;-75
2021/06/28 09:25:07;;;;;;;;;;;20.70;91.70;;;;;;4360197;32;42942;-74
2021/06/28 09:27:44;;;;;;;;;;;20.80;92.10;;;;;;4360331;32;45068;-77
2021/06/28 09:30:20;;;;;;;;;;;20.70;91.80;;;;;;4360326;32;43281;-76
2021/06/28 09:32:51;;;;;;;;;;;20.70;91.90;;;;;;4361379;32;28650;-76
2021/06/28 09:35:39;;;;;;;;;;;20.70;91.90;;;;;;4348022;32;44174;-75
2021/06/28 09:38:26;;;;;;;;;;;20.70;92.00;;;;;;4357536;32;20033;-77
2021/06/28 09:40:54;;;;;;;;;;;20.70;92.10;;;;;;4362576;32;22829;-76
2021/06/28 09:43:26;;;;;;;;;;;20.70;92.00;;;;;;4362725;32;20009;-76
2021/06/28 09:45:56;;;;;;;;;;;20.70;92.00;;;;;;4362173;32;27906;-76
2021/06/28 09:48:30;;;;;;;;;;;20.70;92.40;;;;;;4361872;32;20009;-76
2021/06/28 09:51:16;;;;;;;;;;;20.80;92.20;;;;;;4362402;32;20017;-76
2021/06/28 09:53:49;;;;;;;;;;;20.70;92.20;;;;;;4361793;32;32072;-77
2021/06/28 09:56:33;;;;;;;;;;;20.70;92.20;;;;;;4361200;32;34124;-80
2021/06/28 09:59:19;;;;;;;;;;;20.70;92.20;;;;;;4347982;32;37220;-79
2021/06/28 10:01:47;;;;;;;;;;;20.60;92.30;;;;;;4361684;32;37146;-79
2021/06/28 10:04:37;;;;;;;;;;;20.60;92.40;;;;;;4361513;32;43504;-84
2021/06/28 10:07:23;;;;;;;;;;;20.60;92.40;;;;;;4359595;32;44082;-79
2021/06/28 10:10:08;;;;;;;;;;;20.50;92.50;;;;;;4360606;32;31080;-80
2021/06/28 10:12:36;;;;;;;;;;;20.60;92.50;;;;;;4362222;32;20001;-79
2021/06/28 10:15:10;;;;;;;;;;;20.50;92.60;;;;;;4362107;32;20021;-80
2021/06/28 10:17:38;;;;;;;;;;;20.50;92.60;;;;;;4361188;32;20005;-80
2021/06/28 10:20:10;;;;;;;;;;;20.50;92.70;;;;;;4348143;32;24999;-79
2021/06/28 10:22:40;;;;;;;;;;;20.60;92.70;;;;;;4362673;32;20020;-78
2021/06/28 10:25:09;;;;;;;;;;;20.60;92.60;;;;;;4360745;32;27702;-78
2021/06/28 10:27:37;;;;;;;;;;;20.70;92.60;;;;;;4360998;32;20013;-77
2021/06/28 10:30:08;;;;;;;;;;;20.70;92.60;;;;;;4361860;32;20437;-77
2021/06/28 10:32:36;;;;;;;;;;;20.70;92.60;;;;;;4362257;32;20012;-77
2021/06/28 10:35:05;;;;;;;;;;;20.70;92.60;;;;;;4360349;32;20346;-77
2021/06/28 10:37:35;;;;;;;;;;;20.70;92.60;;;;;;4361515;32;20005;-77
2021/06/28 10:40:07;;;;;;;;;;;20.70;92.50;;;;;;4361811;32;20428;-77
2021/06/28 10:42:45;;;;;;;;;;;20.70;92.50;;;;;;4360885;32;27080;-76
2021/06/28 10:45:13;;;;;;;;;;;20.80;92.50;;;;;;4359944;32;27450;-77
2021/06/28 10:48:00;;;;;;;;;;;20.70;92.50;;;;;;4360640;32;20094;-77
2021/06/28 10:50:50;;;;;;;;;;;20.70;92.50;;;;;;4361006;32;20399;-77
2021/06/28 10:53:37;;;;;;;;;;;20.80;92.50;;;;;;4360028;32;24227;-77
2021/06/28 10:56:27;;;;;;;;;;;20.70;92.60;;;;;;4360105;32;20008;-77
2021/06/28 10:58:55;;;;;;;;;;;20.80;92.60;;;;;;4359939;32;25712;-76
2021/06/28 11:01:39;;;;;;;;;;;20.70;92.60;;;;;;4360140;32;21655;-77
2021/06/28 11:04:11;;;;;;;;;;;20.80;92.70;;;;;;4359599;32;29908;-76
2021/06/28 11:06:57;;;;;;;;;;;20.80;92.60;;;;;;4360182;32;23717;-77
2021/06/28 11:09:42;;;;;;;;;;;20.80;92.50;;;;;;4359353;32;43952;-76
2021/06/28 11:12:21;;;;;;;;;;;20.80;92.50;;;;;;4359586;32;42609;-76
2021/06/28 11:15:00;;;;;;;;;;;20.90;92.50;;;;;;4360483;32;43296;-76
2021/06/28 11:17:48;;;;;;;;;;;20.80;92.50;;;;;;4361537;32;20034;-76
2021/06/28 11:20:38;;;;;;;;;;;20.80;92.40;;;;;;4346522;32;45009;-77
2021/06/28 11:23:07;;;;;;;;;;;20.90;92.40;;;;;;4356737;32;44509;-76
2021/06/28 11:25:52;;;;;;;;;;;20.80;92.40;;;;;;4361906;32;20011;-79
2021/06/28 11:28:31;;;;;;;;;;;20.90;92.40;;;;;;4359284;32;43380;-76
2021/06/28 11:31:03;;;;;;;;;;;20.90;92.50;;;;;;4361217;32;20021;-79
2021/06/28 11:33:36;;;;;;;;;;;20.90;92.60;;;;;;4358956;32;43231;-79
2021/06/28 11:36:05;;;;;;;;;;;20.90;92.50;;;;;;4359452;32;44386;-77
2021/06/28 11:38:37;;;;;;;;;;;20.90;92.50;;;;;;4360134;32;42364;-76
2021/06/28 11:41:10;;;;;;;;;;;20.90;92.60;;;;;;4346578;32;45231;-79
2021/06/28 11:43:44;;;;;;;;;;;20.90;92.50;;;;;;4359113;32;44117;-77
2021/06/28 11:46:35;;;;;;;;;;;20.90;92.50;;;;;;4359712;33;44282;-76
2021/06/28 11:49:06;;;;;;;;;;;20.90;92.50;;;;;;4355952;33;43280;-79
2021/06/28 11:51:34;;;;;;;;;;;21.00;92.60;;;;;;4359837;32;39705;-77
2021/06/28 11:54:05;;;;;;;;;;;20.90;92.50;;;;;;4359986;33;44395;-79
2021/06/28 11:56:35;;;;;;;;;;;21.00;92.50;;;;;;4346982;33;44142;-77
2021/06/28 11:59:07;;;;;;;;;;;21.00;92.50;;;;;;4359001;33;43578;-77
2021/06/28 12:01:39;;;;;;;;;;;21.00;92.50;;;;;;4361210;33;20040;-79
2021/06/28 12:04:16;;;;;;;;;;;21.00;92.50;;;;;;4359314;33;21632;-78
2021/06/28 12:06:43;;;;;;;;;;;21.00;92.40;;;;;;4359787;33;20103;-77
2021/06/28 12:09:18;;;;;;;;;;;21.00;92.40;;;;;;4360179;33;29186;-79
2021/06/28 12:11:51;;;;;;;;;;;21.10;92.40;;;;;;4359935;33;42453;-77
2021/06/28 12:14:27;;;;;;;;;;;21.10;92.40;;;;;;4359179;33;34255;-79
2021/06/28 12:16:57;;;;;;;;;;;21.10;92.40;;;;;;4346868;33;33027;-79
2021/06/28 12:19:28;;;;;;;;;;;21.10;92.40;;;;;;4362199;32;20018;-79
2021/06/28 12:21:57;;;;;;;;;;;21.10;92.40;;;;;;4364027;32;20013;-79
2021/06/28 12:24:27;;;;;;;;;;;21.10;92.40;;;;;;4362029;32;20004;-79
2021/06/28 12:27:06;;;;;;;;;;;21.10;92.30;;;;;;4364052;32;20072;-79
2021/06/28 12:29:37;;;;;;;;;;;21.10;92.30;;;;;;4363988;32;20008;-78
2021/06/28 12:32:10;;;;;;;;;;;21.10;92.40;;;;;;4363950;32;20004;-79
2021/06/28 12:34:41;;;;;;;;;;;21.10;92.30;;;;;;4362403;32;20001;-79
2021/06/28 12:37:09;;;;;;;;;;;21.20;92.30;;;;;;4362977;32;20354;-79
2021/06/28 12:39:36;;;;;;;;;;;21.20;92.30;;;;;;4362475;32;20005;-79
2021/06/28 12:42:15;;;;;;;;;;;21.20;92.20;;;;;;4361904;32;20402;-80
2021/06/28 12:44:43;;;;;;;;;;;21.20;92.20;;;;;;4362423;32;21458;-80
2021/06/28 12:47:11;;;;;;;;;;;21.20;92.20;;;;;;4362075;32;20365;-80
2021/06/28 12:49:42;;;;;;;;;;;21.20;92.20;;;;;;4361543;32;23415;-80
2021/06/28 12:52:41;;;;;;;;;;;21.20;92.20;;;;;;4363063;32;24883;-80
2021/06/28 12:55:12;;;;;;;;;;;21.20;92.10;;;;;;4348693;32;20001;-80
2021/06/28 12:57:43;;;;;;;;;;;21.30;92.20;;;;;;4363157;32;20027;-80
2021/06/28 13:00:27;;;;;;;;;;;21.20;92.20;;;;;;4362486;32;20018;-80
2021/06/28 13:02:59;;;;;;;;;;;21.30;92.20;;;;;;4362306;32;20056;-80
2021/06/28 13:05:33;;;;;;;;;;;21.20;92.10;;;;;;4349198;32;20008;-80
2021/06/28 13:08:10;;;;;;;;;;;21.30;92.20;;;;;;4362461;32;20009;-79
2021/06/28 13:10:38;;;;;;;;;;;21.20;92.10;;;;;;4363057;32;20004;-79
2021/06/28 13:13:18;;;;;;;;;;;21.20;92.20;;;;;;4362864;32;20021;-78
2021/06/28 13:16:15;;;;;;;;;;;21.30;92.20;;;;;;4349379;32;20387;-80
2021/06/28 13:18:55;;;;;;;;;;;21.30;92.20;;;;;;4362155;32;20060;-81
2021/06/28 13:21:29;;;;;;;;;;;21.20;92.30;;;;;;4349976;32;20091;-81
2021/06/28 13:24:03;;;;;;;;;;;21.20;92.40;;;;;;4350152;32;20001;-78
2021/06/28 13:26:33;;;;;;;;;;;21.20;92.40;;;;;;4362828;32;25439;-78
2021/06/28 13:29:05;;;;;;;;;;;21.20;92.40;;;;;;4362062;32;20035;-78
2021/06/28 13:31:54;;;;;;;;;;;21.20;92.50;;;;;;4350057;32;19993;-80
2021/06/28 13:34:24;;;;;;;;;;;21.20;92.50;;;;;;4362048;32;20485;-79
2021/06/28 13:37:00;;;;;;;;;;;21.20;92.50;;;;;;4361742;32;20055;-79
2021/06/28 13:39:38;;;;;;;;;;;21.20;92.50;;;;;;4361669;32;20072;-78
2021/06/28 13:42:05;;;;;;;;;;;21.20;92.60;;;;;;4361867;32;20026;-77
2021/06/28 13:44:35;;;;;;;;;;;21.30;92.60;;;;;;4361411;32;20087;-82
2021/06/28 13:47:08;;;;;;;;;;;21.30;92.60;;;;;;4362798;32;20020;-78
2021/06/28 13:49:38;;;;;;;;;;;21.30;92.60;;;;;;4362443;32;23294;-77
2021/06/28 13:52:13;;;;;;;;;;;21.30;92.70;;;;;;4349287;32;20366;-77
2021/06/28 13:54:41;;;;;;;;;;;21.40;92.70;;;;;;4362608;32;20017;-83
2021/06/28 13:57:08;;;;;;;;;;;21.40;92.60;;;;;;4361318;32;20005;-81
2021/06/28 13:59:36;;;;;;;;;;;21.40;92.60;;;;;;4361101;32;21021;-77
2021/06/28 14:02:03;;;;;;;;;;;21.50;92.60;;;;;;4360567;32;23487;-79
2021/06/28 14:04:30;;;;;;;;;;;21.50;92.70;;;;;;4348416;32;20027;-84
2021/06/28 14:06:58;;;;;;;;;;;21.50;92.70;;;;;;4360541;32;22375;-80
2021/06/28 14:09:25;;;;;;;;;;;21.50;92.70;;;;;;4360684;32;20020;-79
2021/06/28 14:11:52;;;;;;;;;;;21.50;92.60;;;;;;4361624;32;21608;-79
2021/06/28 14:14:20;;;;;;;;;;;21.60;92.70;;;;;;4360817;32;20016;-81
2021/06/28 14:16:50;;;;;;;;;;;21.50;92.60;;;;;;4360948;32;20044;-81
2021/06/28 14:19:20;;;;;;;;;;;21.60;92.60;;;;;;4361242;32;20044;-77
2021/06/28 14:21:47;;;;;;;;;;;21.60;92.70;;;;;;4361393;32;21814;-78
2021/06/28 14:24:16;;;;;;;;;;;21.60;92.70;;;;;;4360527;32;20056;-80
2021/06/28 14:27:00;;;;;;;;;;;21.60;92.70;;;;;;4361508;32;20508;-81
2021/06/28 14:29:33;;;;;;;;;;;21.60;92.60;;;;;;4360781;32;20005;-81
2021/06/28 14:32:03;;;;;;;;;;;21.60;92.60;;;;;;4361492;32;20512;-80
2021/06/28 14:34:30;;;;;;;;;;;21.60;92.60;;;;;;4348442;32;20001;-81